createdAt,value
2022-11-10T00:01:11.365Z,64.82
2022-11-10T00:06:33.800Z,65.10
2022-11-10T00:11:55.252Z,64.93
2022-11-10T00:17:16.594Z,64.73
2022-11-10T00:22:40.878Z,65.09
2022-11-10T00:28:02.535Z,65.11
2022-11-10T00:33:24.150Z,64.84
2022-11-10T00:38:47.555Z,64.86
2022-11-10T00:44:08.811Z,65.07
2022-11-10T00:49:30.549Z,64.92
2022-11-10T00:54:53.048Z,65.03
2022-11-10T01:00:14.685Z,64.74
2022-11-10T01:05:38.955Z,65.17
2022-11-10T01:11:04.097Z,64.80
2022-11-10T01:16:30.445Z,65.11
2022-11-10T01:21:54.370Z,65.14
2022-11-10T01:27:16.870Z,65.18
2022-11-10T01:32:38.526Z,65.18
2022-11-10T01:37:59.707Z,65.08
2022-11-10T01:43:23.345Z,64.90
2022-11-10T01:48:47.363Z,65.02
2022-11-10T01:54:12.830Z,64.97
2022-11-10T01:59:40.283Z,64.81
2022-11-10T02:05:03.853Z,64.80
2022-11-10T02:10:25.517Z,64.76
2022-11-10T02:15:48.171Z,64.86
2022-11-10T02:21:11.356Z,64.51
2022-11-10T02:26:33.099Z,64.17
2022-11-10T02:31:54.142Z,64.28
2022-11-10T02:37:17.089Z,64.19
2022-11-10T02:42:38.289Z,64.20
2022-11-10T02:47:59.752Z,64.18
2022-11-10T02:53:22.887Z,64.58
2022-11-10T02:58:44.410Z,64.62
2022-11-10T03:04:06.852Z,64.59
2022-11-10T03:09:29.501Z,64.44
2022-11-10T03:14:50.869Z,64.55
2022-11-10T03:20:12.571Z,64.68
2022-11-10T03:25:35.368Z,64.87
2022-11-10T03:30:56.760Z,64.95
2022-11-10T03:36:18.106Z,64.89
2022-11-10T03:41:41.056Z,64.71
2022-11-10T03:47:03.885Z,65.05
2022-11-10T03:52:25.296Z,65.16
2022-11-10T03:57:48.040Z,65.19
2022-11-10T04:03:09.562Z,65.07
2022-11-10T04:08:48.427Z,65.19
2022-11-10T04:14:35.762Z,65.14
2022-11-10T04:19:57.113Z,65.23
2022-11-10T04:25:18.718Z,65.03
2022-11-10T04:30:41.289Z,65.33
2022-11-10T04:36:02.424Z,65.51
2022-11-10T04:41:24.785Z,65.48
2022-11-10T04:46:47.568Z,65.37
2022-11-10T04:52:09.021Z,65.38
2022-11-10T04:57:30.510Z,65.50
2022-11-10T05:02:53.440Z,65.60
2022-11-10T05:08:15.209Z,65.44
2022-11-10T05:13:37.501Z,65.50
2022-11-10T05:19:00.483Z,65.71
2022-11-10T05:24:21.874Z,65.62
2022-11-10T05:29:43.290Z,65.74
2022-11-10T05:35:06.788Z,65.82
2022-11-10T05:40:28.771Z,65.83
2022-11-10T05:45:50.299Z,65.86
2022-11-10T05:51:13.008Z,65.85
2022-11-10T05:56:34.498Z,65.90
2022-11-10T06:01:55.966Z,65.84
2022-11-10T06:07:18.801Z,65.92
2022-11-10T06:12:40.268Z,66.02
2022-11-10T06:18:02.154Z,65.97
2022-11-10T06:23:25.133Z,65.98
2022-11-10T06:28:46.871Z,66.01
2022-11-10T06:34:08.514Z,66.25
2022-11-10T06:39:31.143Z,66.41
2022-11-10T06:44:52.247Z,66.45
2022-11-10T06:50:13.484Z,66.55
2022-11-10T06:55:36.120Z,66.62
2022-11-10T07:01:00.877Z,66.83
2022-11-10T07:06:22.619Z,66.73
2022-11-10T07:11:45.468Z,67.04
2022-11-10T07:17:06.939Z,67.05
2022-11-10T07:22:28.280Z,67.04
2022-11-10T07:27:56.072Z,66.98
2022-11-10T07:33:17.957Z,67.10
2022-11-10T07:38:39.231Z,67.16
2022-11-10T07:44:02.335Z,67.21
2022-11-10T07:49:23.447Z,67.27
2022-11-10T07:54:44.909Z,67.30
2022-11-10T08:00:09.206Z,67.46
2022-11-10T08:05:30.741Z,56.68
2022-11-10T08:10:51.999Z,56.77
2022-11-10T08:16:14.739Z,57.37
2022-11-10T08:21:36.286Z,57.79
2022-11-10T08:26:57.874Z,58.17
2022-11-10T08:32:21.211Z,58.63
2022-11-10T08:37:42.772Z,59.38
2022-11-10T08:43:07.373Z,60.11
2022-11-10T08:48:29.889Z,60.21
2022-11-10T08:53:51.321Z,60.92
2022-11-10T08:59:12.539Z,61.18
2022-11-10T09:04:35.387Z,61.76
2022-11-10T09:10:06.839Z,61.99
2022-11-10T09:15:29.804Z,61.99
2022-11-10T09:20:52.316Z,57.26
2022-11-10T09:26:13.934Z,62.41
2022-11-10T09:31:35.450Z,62.44
2022-11-10T09:36:58.075Z,62.92
2022-11-10T09:42:28.330Z,63.09
2022-11-10T09:47:59.558Z,63.19
2022-11-10T09:53:25.739Z,63.56
2022-11-10T09:58:47.628Z,63.61
2022-11-10T10:04:22.731Z,63.57
2022-11-10T10:09:54.054Z,63.87
2022-11-10T10:15:28.285Z,64.72
2022-11-10T10:21:05.643Z,65.88
2022-11-10T10:26:31.025Z,66.75
2022-11-10T10:31:53.995Z,67.10
2022-11-10T10:37:24.521Z,67.26
2022-11-10T10:42:47.726Z,66.90
2022-11-10T10:48:25.655Z,66.42
2022-11-10T10:53:48.073Z,66.15
2022-11-10T10:59:20.289Z,66.05
2022-11-10T11:04:42.200Z,65.76
2022-11-10T11:10:03.936Z,65.84
2022-11-10T11:15:30.294Z,65.29
2022-11-10T11:21:00.792Z,65.79
2022-11-10T11:26:30.705Z,66.09
2022-11-10T11:32:02.976Z,66.16
2022-11-10T11:37:35.080Z,66.35
2022-11-10T11:43:08.796Z,66.12
2022-11-10T11:48:58.244Z,65.97
2022-11-10T11:54:30.027Z,65.67
2022-11-10T12:00:04.518Z,65.60
2022-11-10T12:05:37.584Z,65.19
2022-11-10T12:11:09.720Z,65.11
2022-11-10T12:16:33.346Z,65.08
2022-11-10T12:22:08.410Z,65.04
2022-11-10T12:27:33.938Z,64.89
2022-11-10T12:33:03.484Z,64.72
2022-11-10T12:38:37.281Z,64.71
2022-11-10T12:44:07.323Z,64.40
2022-11-10T12:49:33.930Z,64.11
2022-11-10T12:54:56.769Z,64.06
2022-11-10T13:00:28.614Z,63.94
2022-11-10T13:05:56.823Z,63.77
2022-11-10T13:11:27.399Z,63.93
2022-11-10T13:16:53.923Z,63.88
2022-11-10T13:22:31.593Z,63.90
2022-11-10T13:27:54.885Z,63.62
2022-11-10T13:33:36.279Z,63.75
2022-11-10T13:38:57.781Z,63.70
2022-11-10T13:44:26.347Z,63.62
2022-11-10T13:50:03.375Z,63.41
2022-11-10T13:55:47.313Z,63.59
2022-11-10T14:01:26.909Z,63.47
2022-11-10T14:06:51.338Z,63.47
2022-11-10T14:12:23.315Z,63.96
2022-11-10T14:17:50.004Z,60.45
2022-11-10T14:23:20.790Z,62.82
2022-11-10T14:28:42.109Z,63.77
2022-11-10T14:34:05.247Z,64.69
2022-11-10T14:39:32.740Z,65.43
2022-11-10T14:45:07.794Z,65.78
2022-11-10T14:50:33.984Z,65.88
2022-11-10T14:55:55.988Z,66.35
2022-11-10T15:01:27.153Z,66.76
2022-11-10T15:06:52.736Z,67.08
2022-11-10T15:12:24.301Z,67.44
2022-11-10T15:17:47.820Z,67.71
2022-11-10T15:23:22.449Z,68.12
2022-11-10T15:28:44.021Z,68.46
2022-11-10T15:34:06.306Z,68.78
2022-11-10T15:39:30.104Z,69.02
2022-11-10T15:44:51.555Z,69.15
2022-11-10T15:50:13.291Z,69.36
2022-11-10T15:55:36.336Z,69.98
2022-11-10T16:00:57.666Z,70.13
2022-11-10T16:06:18.899Z,70.06
2022-11-10T16:11:43.468Z,70.19
2022-11-10T16:17:04.737Z,70.53
2022-11-10T16:22:26.152Z,70.61
2022-11-10T16:27:49.808Z,70.94
2022-11-10T16:33:15.572Z,71.20
2022-11-10T16:38:36.912Z,71.41
2022-11-10T16:43:59.922Z,71.56
2022-11-10T16:49:27.903Z,71.56
2022-11-10T16:54:49.186Z,71.69
2022-11-10T17:00:13.270Z,71.78
2022-11-10T17:05:35.471Z,71.76
2022-11-10T17:10:57.683Z,71.78
2022-11-10T17:16:26.896Z,72.45
2022-11-10T17:21:50.561Z,73.32
2022-11-10T17:27:11.932Z,73.53
2022-11-10T17:33:02.952Z,73.64
2022-11-10T17:38:22.077Z,67.48
2022-11-10T17:43:45.960Z,67.77
2022-11-10T17:49:08.768Z,64.48
2022-11-10T17:54:30.342Z,67.73
2022-11-10T17:59:51.988Z,68.28
2022-11-10T18:05:16.440Z,68.63
2022-11-10T18:10:41.616Z,69.20
2022-11-10T18:16:03.352Z,68.82
2022-11-10T18:21:25.927Z,68.50
2022-11-10T18:26:48.121Z,68.42
2022-11-10T18:32:09.521Z,67.95
2022-11-10T18:37:34.696Z,67.75
2022-11-10T18:43:05.942Z,67.66
2022-11-10T18:48:32.073Z,67.75
2022-11-10T18:53:57.431Z,67.70
2022-11-10T18:59:18.952Z,67.55
2022-11-10T19:04:40.690Z,67.30
2022-11-10T19:10:03.243Z,66.97
2022-11-10T19:15:24.455Z,67.00
2022-11-10T19:20:45.523Z,66.88
2022-11-10T19:26:11.406Z,66.72
2022-11-10T19:31:32.778Z,66.62
2022-11-10T19:36:54.355Z,66.60
2022-11-10T19:42:17.315Z,66.52
2022-11-10T19:47:38.794Z,66.42
2022-11-10T19:53:00.421Z,66.42
2022-11-10T19:58:23.285Z,66.22
2022-11-10T20:03:44.748Z,66.29
2022-11-10T20:09:06.798Z,66.08
2022-11-10T20:14:29.438Z,65.89
2022-11-10T20:19:50.614Z,65.96
2022-11-10T20:25:12.153Z,65.87
2022-11-10T20:30:36.692Z,65.77
2022-11-10T20:36:03.313Z,65.44
2022-11-10T20:41:27.167Z,65.40
2022-11-10T20:46:54.622Z,65.29
2022-11-10T20:52:16.874Z,65.33
2022-11-10T20:57:38.235Z,65.20
2022-11-10T21:03:01.039Z,65.21
2022-11-10T21:08:22.861Z,64.86
2022-11-10T21:13:44.217Z,63.72
2022-11-10T21:19:07.288Z,64.06
2022-11-10T21:24:29.180Z,64.12
2022-11-10T21:29:50.314Z,63.99
2022-11-10T21:35:13.134Z,63.71
2022-11-10T21:40:34.845Z,63.91
2022-11-10T21:45:57.433Z,63.91
2022-11-10T21:51:21.072Z,63.35
2022-11-10T21:56:42.454Z,63.93
2022-11-10T22:02:03.782Z,63.97
2022-11-10T22:07:26.479Z,63.95
2022-11-10T22:13:05.601Z,64.01
2022-11-10T22:18:40.331Z,64.18
2022-11-10T22:24:27.501Z,64.04
2022-11-10T22:29:48.745Z,64.07
2022-11-10T22:35:31.010Z,63.99
2022-11-10T22:41:11.324Z,64.04
2022-11-10T22:46:34.792Z,64.18
2022-11-10T22:51:56.343Z,64.10
2022-11-10T22:57:19.126Z,64.12
2022-11-10T23:02:40.591Z,64.15
2022-11-10T23:08:02.162Z,64.07
2022-11-10T23:13:25.314Z,64.01
2022-11-10T23:18:49.562Z,64.11
2022-11-10T23:24:11.002Z,64.10
2022-11-10T23:29:33.688Z,64.07
2022-11-10T23:34:55.420Z,64.00
2022-11-10T23:40:16.937Z,64.00
2022-11-10T23:46:05.970Z,64.04
2022-11-10T23:51:26.277Z,63.88
2022-11-10T23:56:47.590Z,64.04
